createdAt,value
2019-02-14T00:02:23.854Z,50.67
2019-02-14T00:06:30.241Z,45.00
2019-02-14T00:10:38.761Z,40.87
2019-02-14T00:14:45.890Z,50.63
2019-02-14T00:18:53.867Z,48.27
2019-02-14T00:23:00.386Z,44.43
2019-02-14T00:27:07.101Z,44.30
2019-02-14T00:31:14.436Z,51.27
2019-02-14T00:35:25.135Z,43.90
2019-02-14T00:39:30.134Z,39.67
2019-02-14T00:43:36.618Z,41.93
2019-02-14T00:47:43.033Z,37.90
2019-02-14T00:51:53.513Z,29.70
2019-02-14T00:55:59.904Z,38.17
2019-02-14T01:00:06.926Z,35.43
2019-02-14T01:04:35.980Z,28.90
2019-02-14T01:08:42.959Z,36.47
2019-02-14T01:12:49.293Z,32.63
2019-02-14T01:16:58.179Z,46.67
2019-02-14T01:21:04.556Z,42.03
2019-02-14T01:25:14.245Z,43.67
2019-02-14T01:29:20.525Z,36.57
2019-02-14T01:33:28.529Z,39.80
2019-02-14T01:37:36.268Z,38.10
2019-02-14T01:41:44.657Z,32.47
2019-02-14T01:45:52.528Z,37.83
2019-02-14T01:49:59.259Z,37.17
2019-02-14T01:54:05.591Z,36.10
2019-02-14T01:58:14.986Z,30.53
2019-02-14T02:02:21.369Z,36.87
2019-02-14T02:06:27.972Z,41.50
2019-02-14T02:10:36.116Z,44.17
2019-02-14T02:14:44.531Z,30.57
2019-02-14T02:18:53.074Z,39.57
2019-02-14T02:22:58.557Z,37.63
2019-02-14T02:27:05.164Z,43.07
2019-02-14T02:31:14.125Z,42.80
2019-02-14T02:35:20.396Z,47.13
2019-02-14T02:39:26.860Z,30.20
2019-02-14T02:43:37.075Z,25.90
2019-02-14T02:47:44.589Z,42.10
2019-02-14T02:51:55.012Z,49.50
2019-02-14T02:56:01.630Z,35.43
2019-02-14T03:00:14.979Z,35.17
2019-02-14T03:04:22.468Z,38.87
2019-02-14T03:08:28.836Z,37.30
2019-02-14T03:12:40.136Z,44.40
2019-02-14T03:16:46.613Z,36.07
2019-02-14T03:20:57.605Z,35.37
2019-02-14T03:25:04.497Z,32.50
2019-02-14T03:29:12.524Z,38.17
2019-02-14T03:33:19.087Z,37.77
2019-02-14T03:37:26.802Z,30.03
2019-02-14T03:41:36.802Z,38.03
2019-02-14T03:45:43.429Z,48.37
2019-02-14T03:49:49.755Z,40.57
2019-02-14T03:53:57.365Z,49.30
2019-02-14T03:58:03.738Z,35.20
2019-02-14T04:02:10.234Z,39.90
2019-02-14T04:06:14.709Z,27.53
2019-02-14T04:10:23.199Z,42.60
2019-02-14T04:14:30.633Z,40.57
2019-02-14T04:18:38.984Z,32.57
2019-02-14T04:22:45.264Z,29.70
2019-02-14T04:26:56.856Z,48.20
2019-02-14T04:31:07.401Z,48.80
2019-02-14T04:35:37.768Z,42.73
2019-02-14T04:39:44.067Z,31.23
2019-02-14T04:43:53.723Z,30.73
2019-02-14T04:48:01.696Z,33.60
2019-02-14T04:52:08.240Z,40.83
2019-02-14T04:56:16.061Z,32.13
2019-02-14T05:00:23.637Z,34.83
2019-02-14T05:04:29.960Z,45.57
2019-02-14T05:08:37.730Z,41.00
2019-02-14T05:12:44.904Z,37.80
2019-02-14T05:16:53.305Z,27.37
2019-02-14T05:20:59.652Z,33.50
2019-02-14T05:25:06.745Z,21.47
2019-02-14T05:29:16.116Z,39.93
2019-02-14T05:33:24.047Z,31.37
2019-02-14T05:37:30.465Z,40.93
2019-02-14T05:41:40.201Z,26.80
2019-02-14T05:45:46.593Z,26.13
2019-02-14T05:49:54.265Z,32.13
2019-02-14T05:54:00.622Z,38.47
2019-02-14T05:58:08.773Z,36.93
2019-02-14T06:02:15.539Z,32.53
2019-02-14T06:06:22.683Z,28.70
2019-02-14T06:10:29.019Z,26.90
2019-02-14T06:14:57.598Z,29.63
2019-02-14T06:19:03.900Z,35.87
2019-02-14T06:23:10.613Z,39.27
2019-02-14T06:27:18.777Z,31.93
2019-02-14T06:31:25.602Z,39.27
2019-02-14T06:39:52.587Z,39.40
2019-02-14T06:44:05.303Z,30.53
2019-02-14T06:48:18.967Z,30.17
2019-02-14T06:52:36.647Z,30.97
2019-02-14T06:56:51.128Z,26.97
2019-02-14T07:01:04.641Z,39.17
2019-02-14T07:05:16.114Z,30.27
2019-02-14T07:09:25.531Z,38.47
2019-02-14T07:13:52.152Z,32.70
2019-02-14T07:18:00.054Z,29.73
2019-02-14T07:22:06.708Z,32.47
2019-02-14T07:26:13.072Z,26.80
2019-02-14T07:30:23.615Z,32.10
2019-02-14T07:34:32.295Z,30.93
2019-02-14T07:38:40.888Z,36.77
2019-02-14T07:42:49.352Z,41.53
2019-02-14T07:46:56.211Z,39.60
2019-02-14T07:51:02.614Z,37.03
2019-02-14T07:55:11.347Z,35.07
2019-02-14T07:59:17.935Z,36.57
2019-02-14T08:03:27.070Z,34.37
2019-02-14T08:07:36.173Z,37.70
2019-02-14T08:11:42.874Z,30.27
2019-02-14T08:15:52.267Z,34.60
2019-02-14T08:19:58.794Z,32.23
2019-02-14T08:24:05.113Z,35.50
2019-02-14T08:28:09.950Z,23.20
2019-02-14T08:32:16.301Z,35.97
2019-02-14T08:36:26.751Z,37.77
2019-02-14T08:41:13.257Z,28.33
2019-02-14T08:45:20.136Z,44.77
2019-02-14T08:49:26.548Z,23.80
2019-02-14T08:53:33.049Z,28.33
2019-02-14T08:57:39.971Z,31.33
2019-02-14T09:01:49.185Z,28.03
2019-02-14T09:05:57.401Z,26.93
2019-02-14T09:10:05.322Z,31.13
2019-02-14T09:14:15.108Z,29.80
2019-02-14T09:18:22.816Z,36.10
2019-02-14T09:23:14.769Z,30.00
2019-02-14T09:27:21.298Z,31.93
2019-02-14T09:31:31.272Z,33.93
2019-02-14T09:35:38.149Z,31.77
2019-02-14T09:39:45.952Z,28.17
2019-02-14T09:44:11.263Z,29.90
2019-02-14T09:48:19.007Z,35.90
2019-02-14T09:52:25.510Z,32.50
2019-02-14T09:56:32.821Z,37.90
2019-02-14T10:00:41.458Z,25.53
2019-02-14T10:04:51.528Z,32.90
2019-02-14T10:08:58.070Z,31.93
2019-02-14T10:13:04.952Z,29.27
2019-02-14T10:17:21.845Z,28.63
2019-02-14T10:21:21.952Z,28.27
2019-02-14T10:25:30.081Z,33.10
2019-02-14T10:29:36.463Z,31.67
2019-02-14T10:33:42.941Z,26.07
2019-02-14T10:37:50.384Z,31.43
2019-02-14T10:41:56.878Z,29.27
2019-02-14T10:46:03.209Z,30.37
2019-02-14T10:50:31.999Z,19.83
2019-02-14T10:54:39.863Z,30.23
2019-02-14T10:58:50.271Z,27.93
2019-02-14T11:02:56.632Z,31.77
2019-02-14T11:07:03.492Z,28.60
2019-02-14T11:11:10.357Z,28.50
2019-02-14T11:15:18.218Z,22.57
2019-02-14T11:19:24.671Z,26.90
2019-02-14T11:23:31.776Z,24.37
2019-02-14T11:27:39.216Z,24.97
2019-02-14T11:31:48.801Z,28.53
2019-02-14T11:35:58.141Z,30.47
2019-02-14T11:44:39.729Z,27.53
2019-02-14T11:48:45.584Z,28.73
2019-02-14T11:53:14.170Z,19.03
2019-02-14T11:57:21.214Z,19.90
2019-02-14T12:01:31.289Z,22.53
2019-02-14T12:05:37.603Z,26.10
2019-02-14T12:09:44.153Z,26.30
2019-02-14T12:13:51.586Z,21.93
2019-02-14T12:17:59.211Z,24.17
2019-02-14T12:22:05.603Z,23.27
2019-02-14T12:26:13.323Z,21.43
2019-02-14T12:30:19.603Z,28.73
2019-02-14T12:34:26.192Z,20.07
2019-02-14T12:38:33.045Z,20.17
2019-02-14T12:42:39.563Z,24.17
2019-02-14T12:46:45.954Z,26.70
2019-02-14T12:51:14.042Z,22.57
2019-02-14T12:55:21.417Z,21.67
2019-02-14T13:03:33.817Z,27.00
2019-02-14T13:07:41.455Z,20.03
2019-02-14T13:15:56.562Z,20.17
2019-02-14T13:20:07.033Z,18.97
2019-02-14T13:24:19.548Z,18.70
2019-02-14T13:28:27.162Z,16.23
2019-02-14T13:32:36.823Z,14.13
2019-02-14T13:36:43.093Z,11.77
2019-02-14T13:40:51.452Z,18.73
2019-02-14T13:44:57.742Z,17.97
2019-02-14T13:49:04.450Z,15.17
2019-02-14T13:53:12.622Z,9.57
2019-02-14T13:57:20.327Z,22.57
2019-02-14T14:01:26.611Z,13.67
2019-02-14T14:05:36.089Z,16.97
2019-02-14T14:13:56.219Z,12.47
2019-02-14T14:18:02.583Z,16.40
2019-02-14T14:22:11.942Z,16.33
2019-02-14T14:26:18.278Z,16.20
2019-02-14T14:30:26.308Z,22.00
2019-02-14T14:34:31.070Z,22.90
2019-02-14T14:38:37.710Z,16.53
2019-02-14T14:42:50.047Z,23.93
2019-02-14T14:47:03.407Z,20.73
2019-02-14T14:51:11.277Z,20.57
2019-02-14T14:55:17.944Z,20.80
2019-02-14T14:59:24.255Z,17.40
2019-02-14T15:03:31.259Z,17.40
2019-02-14T15:07:41.671Z,23.83
2019-02-14T15:16:14.964Z,25.70
2019-02-14T15:20:22.355Z,19.23
2019-02-14T15:28:37.492Z,27.60
2019-02-14T15:32:44.002Z,30.73
2019-02-14T15:36:51.810Z,27.70
2019-02-14T15:40:58.117Z,22.93
2019-02-14T15:45:04.591Z,27.30
2019-02-14T15:49:11.065Z,26.20
2019-02-14T15:53:21.268Z,33.37
2019-02-14T15:57:27.186Z,27.27
2019-02-14T16:01:35.784Z,38.67
2019-02-14T16:05:42.641Z,37.87
2019-02-14T16:09:53.088Z,34.10
2019-02-14T16:14:00.488Z,30.20
2019-02-14T16:18:09.872Z,37.83
2019-02-14T16:22:11.970Z,39.37
2019-02-14T16:26:23.268Z,41.87
2019-02-14T16:30:33.341Z,42.77
2019-02-14T16:34:39.752Z,43.07
2019-02-14T16:38:46.447Z,59.17
2019-02-14T16:42:54.537Z,51.83
2019-02-14T16:47:01.238Z,55.80
2019-02-14T16:51:09.300Z,54.67
2019-02-14T16:55:19.999Z,52.47
2019-02-14T17:03:36.896Z,54.47
2019-02-14T17:07:43.262Z,52.10
2019-02-14T17:11:52.818Z,53.50
2019-02-14T17:15:59.814Z,47.27
2019-02-14T17:20:07.301Z,46.03
2019-02-14T17:24:15.115Z,41.23
2019-02-14T17:28:21.469Z,53.47
2019-02-14T17:32:32.044Z,42.97
2019-02-14T17:36:41.861Z,45.43
2019-02-14T17:44:57.838Z,49.60
2019-02-14T17:49:05.197Z,52.53
2019-02-14T17:53:11.159Z,57.80
2019-02-14T17:57:19.739Z,55.30
2019-02-14T18:01:26.909Z,48.67
2019-02-14T18:05:35.126Z,52.27
2019-02-14T18:09:41.565Z,52.67
2019-02-14T18:13:50.131Z,55.40
2019-02-14T18:17:56.706Z,42.23
2019-02-14T18:22:03.980Z,47.83
2019-02-14T18:26:32.880Z,53.70
2019-02-14T18:30:39.771Z,62.23
2019-02-14T18:34:46.211Z,57.77
2019-02-14T18:39:13.079Z,52.93
2019-02-14T18:43:25.436Z,44.37
2019-02-14T18:47:39.455Z,41.57
2019-02-14T18:55:54.089Z,37.73
2019-02-14T19:00:00.414Z,39.27
2019-02-14T19:04:08.466Z,42.13
2019-02-14T19:08:17.218Z,33.83
2019-02-14T19:12:28.037Z,37.97
2019-02-14T19:16:36.037Z,37.87
2019-02-14T19:21:02.367Z,40.70
2019-02-14T19:25:09.086Z,40.00
2019-02-14T19:29:17.315Z,43.07
2019-02-14T19:33:27.952Z,41.60
2019-02-14T19:37:34.627Z,47.97
2019-02-14T19:41:40.947Z,51.67
2019-02-14T19:46:07.142Z,49.57
2019-02-14T19:50:13.496Z,47.47
2019-02-14T19:54:21.710Z,48.97
2019-02-14T19:58:28.051Z,43.23
2019-02-14T20:02:35.996Z,49.17
2019-02-14T20:11:37.185Z,51.13
2019-02-14T20:20:11.275Z,49.70
2019-02-14T20:24:17.677Z,45.97
2019-02-14T20:28:27.906Z,44.47
2019-02-14T20:32:34.325Z,51.37
2019-02-14T20:36:41.076Z,46.40
2019-02-14T20:41:06.778Z,49.67
2019-02-14T20:45:14.131Z,46.17
2019-02-14T20:49:20.433Z,54.37
2019-02-14T20:53:30.064Z,53.43
2019-02-14T20:57:36.280Z,46.10
2019-02-14T21:05:46.720Z,49.57
2019-02-14T21:09:54.238Z,56.40
2019-02-14T21:14:00.565Z,60.23
2019-02-14T21:18:10.363Z,53.93
2019-02-14T21:22:18.795Z,48.13
2019-02-14T21:26:27.832Z,55.47
2019-02-14T21:30:36.353Z,51.50
2019-02-14T21:38:52.044Z,56.70
2019-02-14T21:42:58.561Z,48.63
2019-02-14T21:47:06.169Z,53.10
2019-02-14T21:51:12.693Z,57.30
2019-02-14T21:55:19.156Z,55.23
2019-02-14T21:59:46.616Z,52.53
2019-02-14T22:03:53.190Z,54.40
2019-02-14T22:08:02.084Z,51.13
2019-02-14T22:12:08.455Z,62.40
2019-02-14T22:16:16.345Z,61.87
2019-02-14T22:24:30.704Z,67.40
2019-02-14T22:28:37.158Z,66.67
2019-02-14T22:32:48.110Z,74.50
2019-02-14T22:36:54.448Z,80.87
2019-02-14T22:41:00.850Z,72.67
2019-02-14T22:45:08.539Z,74.90
2019-02-14T22:49:16.284Z,75.13
2019-02-14T22:53:22.563Z,76.40
2019-02-14T22:57:32.822Z,71.70
2019-02-14T23:01:39.846Z,72.03
2019-02-14T23:05:48.533Z,81.33
2019-02-14T23:09:56.215Z,71.90
2019-02-14T23:14:04.090Z,75.57
2019-02-14T23:18:11.882Z,76.03
2019-02-14T23:22:20.435Z,84.90
2019-02-14T23:26:31.109Z,83.60
2019-02-14T23:30:38.043Z,87.03
2019-02-14T23:34:45.405Z,94.47
2019-02-14T23:38:52.426Z,95.27
2019-02-14T23:43:04.407Z,87.00
2019-02-14T23:47:08.084Z,92.97
2019-02-14T23:51:14.379Z,102.93
2019-02-14T23:55:21.549Z,101.13
2019-02-14T23:59:29.140Z,96.33
